createdAt,value
2019-03-21T00:01:28.978Z,23.50
2019-03-21T00:04:00.673Z,20.63
2019-03-21T00:06:29.868Z,16.53
2019-03-21T00:08:58.532Z,18.10
2019-03-21T00:12:16.707Z,19.67
2019-03-21T00:14:57.649Z,21.23
2019-03-21T00:17:29.095Z,16.73
2019-03-21T00:19:58.151Z,17.20
2019-03-21T00:22:27.103Z,15.67
2019-03-21T00:24:55.688Z,23.93
2019-03-21T00:27:24.802Z,25.07
2019-03-21T00:29:53.750Z,22.77
2019-03-21T00:32:22.170Z,20.53
2019-03-21T00:34:51.147Z,19.10
2019-03-21T00:37:19.897Z,25.50
2019-03-21T00:39:48.848Z,19.37
2019-03-21T00:42:17.482Z,19.57
2019-03-21T00:44:46.526Z,27.93
2019-03-21T00:47:15.531Z,23.20
2019-03-21T00:49:44.619Z,16.40
2019-03-21T00:52:13.797Z,24.20
2019-03-21T00:54:42.151Z,24.60
2019-03-21T00:57:11.811Z,25.23
2019-03-21T00:59:41.078Z,28.30
2019-03-21T01:02:09.709Z,19.97
2019-03-21T01:04:38.572Z,28.73
2019-03-21T01:07:07.502Z,21.17
2019-03-21T01:09:36.766Z,19.67
2019-03-21T01:12:05.707Z,21.50
2019-03-21T01:14:34.534Z,24.87
2019-03-21T01:17:03.742Z,31.47
2019-03-21T01:19:33.420Z,27.27
2019-03-21T01:22:02.351Z,20.00
2019-03-21T01:24:31.431Z,20.40
2019-03-21T01:27:00.618Z,32.77
2019-03-21T01:29:29.856Z,23.30
2019-03-21T01:31:58.909Z,32.83
2019-03-21T01:34:27.925Z,31.80
2019-03-21T01:36:57.003Z,30.33
2019-03-21T01:39:25.998Z,26.97
2019-03-21T01:41:54.895Z,26.90
2019-03-21T01:44:24.090Z,16.43
2019-03-21T01:46:53.209Z,20.63
2019-03-21T01:49:22.573Z,30.23
2019-03-21T01:51:51.579Z,19.63
2019-03-21T01:54:21.056Z,23.13
2019-03-21T01:56:49.862Z,20.63
2019-03-21T01:59:18.883Z,19.87
2019-03-21T02:01:49.026Z,20.90
2019-03-21T02:04:18.287Z,17.27
2019-03-21T02:06:47.026Z,21.57
2019-03-21T02:09:16.562Z,17.70
2019-03-21T02:11:45.894Z,21.50
2019-03-21T02:14:14.530Z,28.00
2019-03-21T02:16:43.575Z,17.97
2019-03-21T02:19:12.764Z,22.13
2019-03-21T02:21:41.300Z,20.23
2019-03-21T02:24:10.143Z,26.17
2019-03-21T02:26:40.715Z,17.77
2019-03-21T02:29:09.186Z,20.20
2019-03-21T02:31:38.238Z,29.67
2019-03-21T02:34:07.080Z,31.43
2019-03-21T02:36:35.851Z,18.67
2019-03-21T02:39:05.699Z,25.23
2019-03-21T02:41:34.532Z,18.67
2019-03-21T02:44:03.498Z,24.67
2019-03-21T02:46:32.699Z,22.47
2019-03-21T02:49:02.033Z,29.40
2019-03-21T02:51:30.394Z,24.10
2019-03-21T02:53:59.396Z,23.27
2019-03-21T02:56:28.157Z,21.43
2019-03-21T02:58:56.704Z,20.53
2019-03-21T03:01:25.091Z,24.73
2019-03-21T03:03:54.098Z,30.67
2019-03-21T03:06:23.117Z,22.03
2019-03-21T03:08:52.414Z,23.77
2019-03-21T03:11:21.565Z,28.40
2019-03-21T03:13:50.699Z,26.40
2019-03-21T03:16:19.450Z,18.27
2019-03-21T03:18:48.374Z,18.40
2019-03-21T03:21:17.149Z,18.47
2019-03-21T03:23:45.498Z,16.50
2019-03-21T03:26:14.553Z,26.83
2019-03-21T03:28:43.514Z,17.77
2019-03-21T03:31:12.419Z,22.43
2019-03-21T03:33:41.514Z,19.73
2019-03-21T03:36:10.599Z,17.33
2019-03-21T03:38:39.515Z,17.10
2019-03-21T03:41:08.559Z,13.13
2019-03-21T03:43:37.415Z,13.30
2019-03-21T03:46:05.784Z,9.10
2019-03-21T03:48:36.621Z,10.13
2019-03-21T03:51:05.502Z,15.57
2019-03-21T03:53:34.032Z,12.23
2019-03-21T03:56:02.571Z,13.98
2019-03-21T03:58:31.545Z,11.47
2019-03-21T04:01:00.077Z,10.70
2019-03-21T04:03:28.970Z,21.07
2019-03-21T04:05:58.045Z,17.33
2019-03-21T04:08:53.177Z,18.67
2019-03-21T04:11:29.536Z,22.67
2019-03-21T04:13:59.247Z,31.67
2019-03-21T04:16:28.001Z,20.77
2019-03-21T04:18:56.995Z,19.97
2019-03-21T04:21:26.188Z,19.83
2019-03-21T04:23:54.808Z,22.53
2019-03-21T04:26:25.838Z,17.77
2019-03-21T04:28:55.506Z,26.07
2019-03-21T04:31:24.079Z,18.50
2019-03-21T04:33:54.490Z,21.50
2019-03-21T04:36:23.127Z,22.80
2019-03-21T04:38:51.821Z,26.07
2019-03-21T04:41:20.251Z,13.43
2019-03-21T04:43:49.365Z,19.23
2019-03-21T04:46:18.860Z,33.30
2019-03-21T04:48:47.512Z,24.87
2019-03-21T04:51:15.815Z,21.77
2019-03-21T04:53:44.906Z,19.50
2019-03-21T04:56:13.258Z,41.70
2019-03-21T04:58:42.030Z,51.87
2019-03-21T05:01:10.357Z,43.07
2019-03-21T05:03:39.381Z,31.73
2019-03-21T05:06:08.310Z,28.60
2019-03-21T05:08:37.653Z,22.10
2019-03-21T05:11:06.360Z,30.33
2019-03-21T05:13:35.629Z,24.63
2019-03-21T05:16:14.379Z,19.87
2019-03-21T05:18:36.949Z,23.67
2019-03-21T05:21:06.203Z,23.03
2019-03-21T05:23:35.309Z,28.23
2019-03-21T05:26:04.801Z,26.33
2019-03-21T05:28:34.535Z,19.47
2019-03-21T05:31:06.557Z,24.80
2019-03-21T05:33:35.514Z,23.97
2019-03-21T05:36:04.594Z,21.47
2019-03-21T05:38:33.360Z,19.33
2019-03-21T05:41:01.660Z,17.00
2019-03-21T05:43:34.617Z,14.83
2019-03-21T05:46:03.385Z,20.13
2019-03-21T05:48:32.294Z,14.83
2019-03-21T05:51:02.502Z,17.00
2019-03-21T05:53:31.559Z,16.90
2019-03-21T05:56:00.166Z,13.77
2019-03-21T05:58:29.178Z,22.93
2019-03-21T06:00:58.157Z,17.57
2019-03-21T06:03:29.884Z,16.47
2019-03-21T06:06:11.837Z,29.13
2019-03-21T06:08:40.601Z,21.77
2019-03-21T06:11:09.189Z,24.33
2019-03-21T06:13:37.989Z,32.60
2019-03-21T06:16:10.517Z,30.67
2019-03-21T06:19:37.097Z,22.50
2019-03-21T06:22:51.753Z,26.00
2019-03-21T06:25:57.653Z,18.33
2019-03-21T06:28:26.299Z,25.13
2019-03-21T06:30:55.323Z,16.80
2019-03-21T06:33:24.395Z,22.33
2019-03-21T06:35:53.275Z,23.83
2019-03-21T06:38:22.302Z,15.47
2019-03-21T06:40:51.601Z,14.90
2019-03-21T06:43:20.278Z,14.47
2019-03-21T06:45:48.898Z,12.07
2019-03-21T06:48:17.324Z,10.63
2019-03-21T06:50:46.123Z,13.67
2019-03-21T06:53:15.112Z,13.93
2019-03-21T06:55:44.691Z,12.70
2019-03-21T06:58:13.738Z,13.67
2019-03-21T07:00:42.919Z,16.03
2019-03-21T07:03:12.134Z,12.83
2019-03-21T07:05:40.999Z,10.27
2019-03-21T07:08:10.024Z,12.70
2019-03-21T07:10:38.992Z,15.43
2019-03-21T07:13:08.180Z,17.70
2019-03-21T07:15:36.966Z,21.73
2019-03-21T07:18:05.957Z,15.97
2019-03-21T07:20:34.370Z,18.03
2019-03-21T07:23:03.734Z,15.77
2019-03-21T07:25:32.845Z,14.00
2019-03-21T07:28:01.528Z,22.33
2019-03-21T07:30:32.770Z,12.27
2019-03-21T07:33:01.861Z,13.23
2019-03-21T07:35:30.757Z,13.67
2019-03-21T07:37:58.995Z,16.80
2019-03-21T07:40:28.255Z,20.50
2019-03-21T07:42:56.471Z,13.53
2019-03-21T07:45:24.715Z,13.70
2019-03-21T07:47:53.122Z,17.20
2019-03-21T07:50:22.176Z,14.43
2019-03-21T07:52:50.975Z,13.63
2019-03-21T07:55:19.933Z,13.57
2019-03-21T07:57:49.031Z,14.53
2019-03-21T08:00:17.489Z,18.00
2019-03-21T08:02:46.502Z,18.03
2019-03-21T08:05:16.450Z,17.80
2019-03-21T08:07:45.411Z,15.40
2019-03-21T08:10:14.645Z,15.17
2019-03-21T08:12:43.709Z,13.27
2019-03-21T08:15:13.206Z,14.27
2019-03-21T08:17:41.637Z,12.10
2019-03-21T08:20:11.802Z,18.33
2019-03-21T08:22:41.128Z,17.30
2019-03-21T08:25:09.962Z,21.00
2019-03-21T08:27:38.441Z,15.07
2019-03-21T08:30:07.753Z,19.53
2019-03-21T08:32:36.782Z,19.10
2019-03-21T08:35:07.638Z,11.70
2019-03-21T08:37:37.819Z,19.13
2019-03-21T08:40:08.416Z,10.50
2019-03-21T08:42:37.169Z,14.47
2019-03-21T08:45:06.257Z,18.32
2019-03-21T08:47:36.929Z,15.87
2019-03-21T08:50:06.066Z,17.82
2019-03-21T08:52:34.297Z,11.27
2019-03-21T08:55:02.543Z,10.07
2019-03-21T08:57:30.810Z,20.77
2019-03-21T08:59:59.502Z,16.87
2019-03-21T09:02:27.746Z,14.27
2019-03-21T09:04:55.969Z,15.70
2019-03-21T09:07:24.473Z,15.28
2019-03-21T09:09:52.699Z,23.27
2019-03-21T09:12:29.985Z,16.50
2019-03-21T09:15:08.022Z,11.28
2019-03-21T09:17:48.024Z,13.77
2019-03-21T09:20:24.381Z,13.20
2019-03-21T09:23:02.508Z,14.63
2019-03-21T09:25:32.945Z,17.53
2019-03-21T09:28:13.929Z,12.33
2019-03-21T09:30:50.475Z,11.73
2019-03-21T09:33:26.236Z,12.33
2019-03-21T09:36:04.132Z,14.63
2019-03-21T09:38:41.641Z,15.43
2019-03-21T09:41:09.817Z,16.60
2019-03-21T09:43:38.366Z,12.63
2019-03-21T09:46:06.589Z,18.62
2019-03-21T09:48:35.096Z,18.32
2019-03-21T09:51:06.551Z,17.65
2019-03-21T09:53:34.773Z,13.53
2019-03-21T09:56:03.118Z,21.90
2019-03-21T09:58:31.337Z,11.80
2019-03-21T10:00:59.574Z,16.00
2019-03-21T10:03:27.809Z,17.00
2019-03-21T10:05:57.055Z,14.95
2019-03-21T10:08:25.318Z,12.98
2019-03-21T10:10:53.654Z,18.15
2019-03-21T10:13:27.155Z,13.28
2019-03-21T10:15:55.357Z,19.23
2019-03-21T10:18:23.706Z,10.70
2019-03-21T10:20:52.065Z,13.30
2019-03-21T10:23:20.798Z,19.37
2019-03-21T10:25:49.424Z,14.18
2019-03-21T10:28:17.619Z,15.53
2019-03-21T10:30:45.833Z,20.80
2019-03-21T10:33:14.403Z,17.47
2019-03-21T10:35:42.734Z,19.05
2019-03-21T10:38:15.690Z,19.10
2019-03-21T10:40:43.949Z,14.90
2019-03-21T10:43:12.181Z,21.43
2019-03-21T10:45:40.438Z,13.13
2019-03-21T10:48:08.637Z,12.20
2019-03-21T10:50:38.870Z,15.97
2019-03-21T10:53:07.846Z,15.97
2019-03-21T10:55:36.429Z,16.50
2019-03-21T10:58:05.808Z,19.95
2019-03-21T11:00:34.602Z,17.47
2019-03-21T11:03:03.553Z,17.00
2019-03-21T11:05:32.597Z,16.07
2019-03-21T11:08:01.302Z,16.25
2019-03-21T11:10:29.930Z,18.23
2019-03-21T11:12:58.571Z,15.00
2019-03-21T11:15:26.928Z,14.63
2019-03-21T11:17:55.690Z,17.57
2019-03-21T11:20:34.768Z,17.23
2019-03-21T11:23:04.210Z,14.93
2019-03-21T11:25:32.475Z,20.20
2019-03-21T11:28:00.727Z,16.70
2019-03-21T11:30:30.987Z,14.93
2019-03-21T11:32:59.533Z,14.93
2019-03-21T11:35:27.779Z,18.40
2019-03-21T11:37:56.133Z,16.07
2019-03-21T11:40:24.728Z,14.07
2019-03-21T11:42:53.448Z,13.00
2019-03-21T11:45:22.674Z,12.43
2019-03-21T11:47:50.886Z,11.77
2019-03-21T11:50:21.646Z,16.50
2019-03-21T11:52:49.886Z,15.90
2019-03-21T11:55:18.115Z,16.77
2019-03-21T11:57:47.217Z,17.87
2019-03-21T12:00:15.734Z,9.97
2019-03-21T12:02:43.957Z,12.03
2019-03-21T12:05:12.431Z,14.33
2019-03-21T12:07:43.511Z,15.67
2019-03-21T12:10:18.935Z,14.13
2019-03-21T12:12:47.229Z,15.13
2019-03-21T12:15:15.946Z,14.33
2019-03-21T12:17:44.236Z,15.57
2019-03-21T12:20:13.072Z,19.17
2019-03-21T12:22:42.601Z,19.07
2019-03-21T12:25:11.354Z,17.00
2019-03-21T12:27:40.413Z,16.43
2019-03-21T12:30:10.210Z,14.03
2019-03-21T12:32:39.022Z,10.60
2019-03-21T12:35:08.054Z,15.70
2019-03-21T12:37:37.015Z,10.53
2019-03-21T12:40:06.849Z,16.17
2019-03-21T12:42:35.308Z,11.00
2019-03-21T12:45:05.622Z,13.70
2019-03-21T12:47:34.514Z,17.43
2019-03-21T12:50:04.082Z,22.77
2019-03-21T12:52:40.938Z,16.43
2019-03-21T12:55:02.923Z,9.60
2019-03-21T12:57:31.768Z,11.23
2019-03-21T13:00:00.401Z,16.10
2019-03-21T13:02:32.390Z,17.53
2019-03-21T13:04:59.590Z,15.90
2019-03-21T13:07:30.763Z,12.83
2019-03-21T13:09:59.769Z,9.47
2019-03-21T13:12:28.600Z,13.10
2019-03-21T13:14:57.738Z,14.93
2019-03-21T13:17:27.049Z,15.13
2019-03-21T13:19:55.707Z,12.13
2019-03-21T13:22:24.733Z,12.30
2019-03-21T13:24:53.390Z,11.50
2019-03-21T13:27:22.103Z,19.07
2019-03-21T13:29:50.937Z,13.27
2019-03-21T13:32:19.785Z,11.97
2019-03-21T13:34:48.518Z,11.97
2019-03-21T13:37:20.046Z,10.13
2019-03-21T13:39:49.214Z,11.97
2019-03-21T13:42:17.889Z,15.03
2019-03-21T13:44:46.561Z,14.33
2019-03-21T13:47:14.849Z,15.33
2019-03-21T13:49:43.669Z,11.80
2019-03-21T13:52:12.141Z,14.10
2019-03-21T13:54:41.385Z,11.80
2019-03-21T13:57:10.349Z,16.93
2019-03-21T13:59:39.338Z,16.97
2019-03-21T14:02:08.946Z,13.73
2019-03-21T14:04:38.015Z,21.10
2019-03-21T14:07:06.901Z,21.17
2019-03-21T14:09:35.906Z,16.60
2019-03-21T14:12:05.194Z,16.87
2019-03-21T14:14:33.589Z,19.63
2019-03-21T14:17:02.393Z,18.07
2019-03-21T14:19:31.556Z,16.03
2019-03-21T14:22:00.277Z,16.97
2019-03-21T14:24:28.857Z,19.63
2019-03-21T14:26:57.745Z,17.77
2019-03-21T14:29:26.723Z,16.60
2019-03-21T14:31:55.710Z,19.60
2019-03-21T14:34:24.927Z,16.10
2019-03-21T14:36:53.902Z,16.77
2019-03-21T14:39:22.923Z,14.80
2019-03-21T14:41:51.980Z,19.57
2019-03-21T14:44:20.890Z,15.23
2019-03-21T14:46:50.107Z,18.13
2019-03-21T14:49:19.179Z,12.57
2019-03-21T14:51:47.534Z,12.47
2019-03-21T14:54:16.440Z,11.93
2019-03-21T14:56:44.870Z,14.23
2019-03-21T14:59:13.649Z,13.37
2019-03-21T15:01:42.023Z,26.77
2019-03-21T15:04:10.722Z,23.43
2019-03-21T15:06:39.965Z,16.50
2019-03-21T15:09:11.543Z,20.33
2019-03-21T15:11:40.852Z,15.60
2019-03-21T15:14:09.711Z,18.73
2019-03-21T15:16:38.528Z,17.30
2019-03-21T15:19:07.405Z,15.77
2019-03-21T15:21:36.702Z,20.07
2019-03-21T15:24:05.362Z,17.53
2019-03-21T15:26:34.690Z,18.80
2019-03-21T15:29:03.048Z,15.87
2019-03-21T15:31:31.742Z,19.70
2019-03-21T15:34:00.105Z,10.00
2019-03-21T15:36:32.139Z,17.93
2019-03-21T15:39:01.373Z,16.80
2019-03-21T15:41:29.912Z,17.67
2019-03-21T15:43:58.864Z,13.33
2019-03-21T15:46:36.135Z,17.93
2019-03-21T15:49:04.498Z,20.57
2019-03-21T15:51:32.752Z,23.30
2019-03-21T15:58:41.052Z,19.67
2019-03-21T16:01:09.371Z,23.27
2019-03-21T16:03:37.578Z,21.07
2019-03-21T16:06:05.989Z,20.50
2019-03-21T16:08:34.226Z,18.70
2019-03-21T16:11:02.514Z,21.00
2019-03-21T16:13:30.768Z,20.00
2019-03-21T16:15:59.729Z,15.67
2019-03-21T16:18:27.959Z,23.90
2019-03-21T16:20:56.179Z,22.93
2019-03-21T16:23:24.458Z,17.07
2019-03-21T16:25:52.693Z,17.50
2019-03-21T16:28:20.920Z,24.27
2019-03-21T16:30:49.181Z,20.57
2019-03-21T16:33:17.536Z,18.33
2019-03-21T16:35:45.804Z,21.73
2019-03-21T16:38:14.046Z,19.03
2019-03-21T16:40:42.393Z,17.30
2019-03-21T16:43:10.620Z,20.07
2019-03-21T16:45:51.894Z,19.13
2019-03-21T16:48:20.130Z,24.57
2019-03-21T16:50:48.332Z,23.13
2019-03-21T16:53:16.568Z,25.43
2019-03-21T16:55:45.189Z,20.77
2019-03-21T16:58:13.426Z,19.97
2019-03-21T17:00:41.723Z,17.07
2019-03-21T17:03:09.979Z,18.33
2019-03-21T17:05:38.614Z,24.20
2019-03-21T17:08:11.528Z,23.83
2019-03-21T17:10:36.881Z,20.63
2019-03-21T17:13:06.398Z,19.90
2019-03-21T17:15:35.169Z,19.13
2019-03-21T17:18:03.514Z,28.53
2019-03-21T17:20:32.206Z,26.57
2019-03-21T17:23:00.413Z,20.70
2019-03-21T17:25:31.137Z,18.13
2019-03-21T17:28:01.399Z,18.73
2019-03-21T17:30:30.648Z,21.23
2019-03-21T17:32:58.905Z,15.23
2019-03-21T17:35:27.166Z,19.37
2019-03-21T17:37:55.432Z,22.40
2019-03-21T17:40:23.654Z,19.60
2019-03-21T17:42:51.986Z,23.30
2019-03-21T17:45:21.038Z,20.77
2019-03-21T17:47:49.315Z,24.83
2019-03-21T17:50:20.290Z,22.20
2019-03-21T17:52:51.299Z,22.97
2019-03-21T17:55:20.084Z,18.70
2019-03-21T17:57:48.444Z,24.60
2019-03-21T18:00:21.331Z,20.20
2019-03-21T18:02:49.834Z,23.63
2019-03-21T18:05:18.970Z,17.90
2019-03-21T18:07:47.363Z,17.47
2019-03-21T18:10:24.425Z,23.70
2019-03-21T18:12:52.682Z,23.07
2019-03-21T18:15:20.955Z,19.70
2019-03-21T18:17:49.191Z,19.20
2019-03-21T18:20:17.423Z,23.40
2019-03-21T18:22:47.923Z,18.17
2019-03-21T18:25:16.181Z,22.57
2019-03-21T18:27:44.398Z,20.00
2019-03-21T18:30:14.305Z,27.10
2019-03-21T18:32:42.620Z,29.00
2019-03-21T18:35:11.920Z,25.00
2019-03-21T18:37:40.213Z,18.43
2019-03-21T18:40:08.842Z,20.37
2019-03-21T18:42:37.087Z,24.77
2019-03-21T18:45:07.747Z,27.13
2019-03-21T18:47:35.963Z,23.03
2019-03-21T18:50:08.969Z,20.60
2019-03-21T18:52:36.124Z,26.17
2019-03-21T18:55:06.548Z,19.73
2019-03-21T18:57:36.244Z,20.93
2019-03-21T19:00:06.388Z,24.43
2019-03-21T19:02:34.636Z,25.67
2019-03-21T19:05:03.346Z,25.57
2019-03-21T19:07:31.576Z,25.40
2019-03-21T19:09:59.834Z,23.20
2019-03-21T19:12:28.225Z,26.37
2019-03-21T19:14:56.510Z,41.53
2019-03-21T19:17:24.921Z,44.47
2019-03-21T19:19:53.192Z,33.37
2019-03-21T19:22:21.429Z,50.07
2019-03-21T19:24:49.643Z,72.37
2019-03-21T19:27:17.904Z,50.30
2019-03-21T19:29:46.114Z,46.57
2019-03-21T19:32:16.367Z,40.47
2019-03-21T19:34:44.392Z,38.93
2019-03-21T19:37:12.610Z,34.37
2019-03-21T19:39:40.845Z,33.43
2019-03-21T19:42:09.649Z,38.63
2019-03-21T19:44:37.909Z,49.13
2019-03-21T19:47:06.332Z,40.30
2019-03-21T19:49:35.013Z,36.77
2019-03-21T19:52:05.506Z,51.70
2019-03-21T19:54:33.849Z,37.57
2019-03-21T19:57:02.045Z,32.60
2019-03-21T19:59:30.284Z,42.37
2019-03-21T20:01:58.498Z,40.17
2019-03-21T20:04:26.746Z,40.73
2019-03-21T20:06:55.131Z,58.67
2019-03-21T20:09:23.456Z,41.53
2019-03-21T20:11:51.678Z,49.17
2019-03-21T20:14:22.110Z,67.63
2019-03-21T20:16:50.512Z,57.77
2019-03-21T20:19:19.986Z,44.03
2019-03-21T20:21:48.442Z,39.43
2019-03-21T20:24:16.900Z,49.43
2019-03-21T20:26:45.135Z,48.80
2019-03-21T20:29:13.378Z,51.30
2019-03-21T20:31:41.675Z,38.83
2019-03-21T20:34:12.682Z,49.50
2019-03-21T20:36:39.963Z,60.33
2019-03-21T20:39:08.274Z,51.97
2019-03-21T20:41:37.326Z,46.10
2019-03-21T20:44:14.757Z,40.57
2019-03-21T20:46:35.613Z,61.37
2019-03-21T20:49:03.936Z,50.23
2019-03-21T20:51:32.177Z,41.53
2019-03-21T20:54:00.451Z,42.00
2019-03-21T20:56:28.657Z,33.67
2019-03-21T20:58:56.897Z,49.20
2019-03-21T21:01:25.381Z,48.73
2019-03-21T21:03:53.595Z,38.03
2019-03-21T21:06:21.842Z,37.97
2019-03-21T21:08:50.058Z,40.07
2019-03-21T21:11:18.244Z,42.27
2019-03-21T21:13:46.467Z,47.97
2019-03-21T21:16:14.713Z,45.90
2019-03-21T21:18:42.942Z,51.90
2019-03-21T21:21:11.142Z,40.67
2019-03-21T21:23:39.410Z,46.93
2019-03-21T21:26:07.633Z,54.13
2019-03-21T21:28:35.872Z,45.03
2019-03-21T21:31:04.101Z,46.73
2019-03-21T21:33:32.334Z,47.50
2019-03-21T21:36:00.558Z,49.37
2019-03-21T21:38:29.346Z,35.20
2019-03-21T21:40:58.637Z,40.87
2019-03-21T21:43:26.990Z,41.47
2019-03-21T21:45:55.265Z,44.73
2019-03-21T21:48:23.483Z,35.63
2019-03-21T21:50:51.750Z,25.27
2019-03-21T21:53:19.976Z,29.90
2019-03-21T21:55:48.233Z,24.10
2019-03-21T21:58:16.464Z,24.97
2019-03-21T22:00:47.514Z,21.37
2019-03-21T22:03:15.741Z,24.60
2019-03-21T22:05:44.014Z,24.53
2019-03-21T22:08:15.126Z,25.47
2019-03-21T22:10:43.327Z,32.90
2019-03-21T22:13:11.542Z,31.53
2019-03-21T22:15:39.769Z,24.20
2019-03-21T22:18:07.990Z,27.90
2019-03-21T22:20:36.561Z,27.50
2019-03-21T22:23:04.786Z,26.70
2019-03-21T22:25:33.026Z,22.60
2019-03-21T22:28:01.594Z,24.77
2019-03-21T22:30:29.812Z,19.50
2019-03-21T22:32:58.073Z,23.57
2019-03-21T22:35:26.314Z,30.13
2019-03-21T22:37:54.553Z,31.87
2019-03-21T22:40:22.780Z,25.63
2019-03-21T22:42:51.000Z,22.10
2019-03-21T22:45:19.250Z,22.33
2019-03-21T22:47:50.373Z,22.57
2019-03-21T22:50:17.621Z,28.53
2019-03-21T22:52:45.949Z,20.50
2019-03-21T22:55:14.468Z,23.80
2019-03-21T22:57:42.839Z,22.50
2019-03-21T23:00:13.899Z,28.80
2019-03-21T23:02:42.161Z,27.17
2019-03-21T23:05:10.757Z,20.83
2019-03-21T23:07:39.035Z,21.27
2019-03-21T23:10:07.520Z,18.00
2019-03-21T23:12:35.735Z,21.87
2019-03-21T23:15:04.681Z,22.20
2019-03-21T23:17:32.957Z,25.33
2019-03-21T23:20:01.188Z,21.07
2019-03-21T23:22:29.465Z,25.63
2019-03-21T23:24:57.719Z,19.47
2019-03-21T23:27:25.971Z,23.77
2019-03-21T23:29:54.212Z,24.77
2019-03-21T23:32:22.448Z,22.90
2019-03-21T23:34:50.730Z,25.30
2019-03-21T23:37:18.948Z,22.93
2019-03-21T23:39:47.191Z,27.20
2019-03-21T23:42:15.464Z,24.00
2019-03-21T23:44:43.681Z,22.57
2019-03-21T23:47:12.832Z,19.73
2019-03-21T23:49:41.112Z,19.53
2019-03-21T23:52:09.346Z,19.90
2019-03-21T23:54:38.081Z,21.83
2019-03-21T23:57:06.288Z,23.93
2019-03-21T23:59:34.886Z,30.20
